Norcatur, Kansas
Current Conditions -  °F | °C
As of 11:53 PM on Wednesday 28 Jan 2015 (Local Time) from KMCK Reporting Station
Clear Clear  
Wind Chill: 36°   Ceiling: Unl
Heat Index: 44°   Visibility: 10mi
Dew Point: 32°   Wind: 21mph
Humidity: 63%   Direction: 320°NW
Pressure: 30.18"   Gusts: NA
Location:  39.84°N, 100.19°W
Report Text: KMCK 290553Z AUTO 32018KT 10SM CLR 07/00 A3018 RMK AO2 PK WND 33028/0528 SLP220 T00670000 10156 20061 402111011 53036
Loading
Personal Weather Stations






























Interactive Weather Map New forecast layout! Learn more

10-Day Weather Forecast

Advertisements
Track Severe Weather on mobile